createdAt,value
2019-02-28T00:04:36.924Z,10.37
2019-02-28T00:09:41.349Z,9.63
2019-02-28T00:14:45.726Z,12.27
2019-02-28T00:19:50.148Z,12.07
2019-02-28T00:24:54.531Z,11.40
2019-02-28T00:29:58.919Z,9.97
2019-02-28T00:35:03.646Z,12.77
2019-02-28T00:40:09.659Z,14.70
2019-02-28T00:45:15.204Z,12.17
2019-02-28T00:50:19.619Z,12.55
2019-02-28T00:55:23.997Z,11.70
2019-02-28T01:00:28.362Z,12.80
2019-02-28T01:05:32.804Z,12.50
2019-02-28T01:10:39.424Z,13.83
2019-02-28T01:15:45.085Z,12.03
2019-02-28T01:20:50.743Z,11.50
2019-02-28T01:25:55.394Z,13.87
2019-02-28T01:30:59.766Z,12.13
2019-02-28T01:36:04.537Z,12.07
2019-02-28T01:41:11.208Z,12.73
2019-02-28T01:46:17.216Z,11.33
2019-02-28T01:51:21.042Z,13.83
2019-02-28T01:56:25.414Z,12.78
2019-02-28T02:01:30.984Z,11.57
2019-02-28T02:06:36.098Z,15.20
2019-02-28T02:11:40.546Z,12.23
2019-02-28T02:16:44.925Z,12.13
2019-02-28T02:21:50.344Z,13.20
2019-02-28T02:26:54.691Z,14.33
2019-02-28T02:32:01.158Z,12.40
2019-02-28T02:37:05.098Z,12.23
2019-02-28T02:42:11.320Z,12.03
2019-02-28T02:47:15.529Z,10.93
2019-02-28T02:52:25.861Z,12.00
2019-02-28T02:57:26.096Z,12.20
2019-02-28T03:02:33.164Z,12.27
2019-02-28T03:07:36.513Z,12.80
2019-02-28T03:12:40.858Z,12.00
2019-02-28T03:17:47.196Z,10.10
2019-02-28T03:22:51.373Z,10.37
2019-02-28T03:27:56.820Z,11.50
2019-02-28T03:33:01.388Z,13.45
2019-02-28T03:38:11.446Z,9.43
2019-02-28T03:43:12.898Z,11.77
2019-02-28T03:48:17.367Z,9.90
2019-02-28T03:53:21.752Z,9.50
2019-02-28T03:58:26.166Z,9.37
2019-02-28T04:03:33.723Z,10.87
2019-02-28T04:08:36.799Z,9.07
2019-02-28T04:13:41.135Z,7.70
2019-02-28T04:18:46.755Z,8.13
2019-02-28T04:23:51.279Z,10.03
2019-02-28T04:28:55.732Z,11.47
2019-02-28T04:34:00.083Z,8.00
2019-02-28T04:39:06.783Z,10.53
2019-02-28T04:44:11.336Z,11.00
2019-02-28T04:49:15.760Z,8.93
2019-02-28T04:54:20.119Z,9.93
2019-02-28T04:59:24.431Z,8.43
2019-02-28T05:04:29.752Z,10.27
2019-02-28T05:09:34.123Z,9.47
2019-02-28T05:14:38.477Z,9.83
2019-02-28T05:19:42.896Z,10.30
2019-02-28T05:24:47.299Z,10.60
2019-02-28T05:29:51.683Z,12.20
2019-02-28T05:34:56.104Z,14.13
2019-02-28T05:40:05.409Z,10.00
2019-02-28T05:45:08.290Z,9.87
2019-02-28T05:50:16.732Z,9.50
2019-02-28T05:55:24.245Z,9.43
2019-02-28T06:00:25.800Z,12.30
2019-02-28T06:05:30.170Z,10.70
2019-02-28T06:10:34.551Z,9.57
2019-02-28T06:15:38.904Z,10.20
2019-02-28T06:20:43.292Z,13.03
2019-02-28T06:25:47.671Z,10.63
2019-02-28T06:30:52.104Z,14.50
2019-02-28T06:35:56.518Z,16.03
2019-02-28T06:41:00.857Z,12.53
2019-02-28T06:46:08.505Z,14.40
2019-02-28T06:51:11.296Z,13.30
2019-02-28T06:56:21.986Z,11.73
2019-02-28T07:01:22.976Z,11.30
2019-02-28T07:06:27.329Z,13.13
2019-02-28T07:11:31.690Z,11.33
2019-02-28T07:16:37.888Z,13.70
2019-02-28T07:21:43.919Z,13.90
2019-02-28T07:26:48.365Z,15.33
2019-02-28T07:31:52.747Z,15.87
2019-02-28T07:36:57.223Z,16.40
2019-02-28T07:42:02.219Z,18.60
2019-02-28T07:47:07.476Z,19.13
2019-02-28T07:52:11.887Z,20.13
2019-02-28T07:57:17.278Z,23.77
2019-02-28T08:02:22.337Z,23.03
2019-02-28T08:07:26.735Z,24.87
2019-02-28T08:12:32.066Z,25.27
2019-02-28T08:17:36.448Z,26.53
2019-02-28T08:22:40.799Z,26.23
2019-02-28T08:27:45.197Z,27.33
2019-02-28T08:32:49.696Z,26.37
2019-02-28T08:37:57.136Z,31.90
2019-02-28T08:43:00.240Z,29.70
2019-02-28T08:48:04.650Z,30.37
2019-02-28T08:53:09.090Z,28.17
2019-02-28T08:58:13.573Z,31.35
2019-02-28T09:03:18.013Z,32.83
2019-02-28T09:08:25.370Z,31.60
2019-02-28T09:13:28.617Z,29.13
2019-02-28T09:18:33.034Z,34.07
2019-02-28T09:23:38.686Z,29.57
2019-02-28T09:28:44.440Z,31.67
2019-02-28T09:33:49.250Z,30.67
2019-02-28T09:38:57.091Z,33.33
2019-02-28T09:44:00.358Z,29.57
2019-02-28T09:49:05.643Z,35.10
2019-02-28T09:54:10.172Z,33.13
2019-02-28T09:59:14.568Z,28.10
2019-02-28T10:04:18.921Z,32.03
2019-02-28T10:09:23.347Z,28.63
2019-02-28T10:14:28.791Z,28.00
2019-02-28T10:19:43.039Z,29.97
2019-02-28T10:24:39.883Z,30.60
2019-02-28T10:29:44.311Z,30.23
2019-02-28T10:34:48.687Z,33.50
2019-02-28T10:39:53.105Z,31.57
2019-02-28T10:44:57.457Z,33.40
2019-02-28T10:50:01.844Z,36.67
2019-02-28T10:55:09.457Z,32.40
2019-02-28T11:00:32.681Z,34.10
2019-02-28T11:05:41.759Z,31.23
2019-02-28T11:10:48.879Z,33.47
2019-02-28T11:15:54.488Z,34.87
2019-02-28T11:20:59.377Z,32.77
2019-02-28T11:26:06.538Z,31.67
2019-02-28T11:31:11.192Z,30.07
2019-02-28T11:36:15.710Z,34.20
2019-02-28T11:41:20.098Z,34.43
2019-02-28T11:46:25.504Z,34.53
2019-02-28T11:51:30.398Z,34.83
2019-02-28T11:56:34.902Z,30.50
2019-02-28T12:01:39.295Z,31.12
2019-02-28T12:06:45.361Z,34.25
2019-02-28T12:11:49.858Z,33.93
2019-02-28T12:16:54.193Z,32.67
2019-02-28T12:22:00.143Z,31.97
2019-02-28T12:27:04.887Z,32.43
2019-02-28T12:32:11.185Z,34.87
2019-02-28T12:37:15.444Z,33.60
2019-02-28T12:42:19.790Z,33.10
2019-02-28T12:47:25.560Z,32.50
2019-02-28T12:52:29.888Z,34.93
2019-02-28T12:57:34.404Z,33.33
2019-02-28T13:02:39.654Z,34.33
2019-02-28T13:07:45.165Z,34.43
2019-02-28T13:12:50.270Z,33.77
2019-02-28T13:17:54.596Z,33.23
2019-02-28T13:23:01.228Z,36.93
2019-02-28T13:28:07.314Z,37.97
2019-02-28T13:33:15.029Z,34.53
2019-02-28T13:38:19.305Z,35.63
2019-02-28T13:43:23.889Z,35.60
2019-02-28T13:48:33.095Z,35.77
2019-02-28T13:53:34.343Z,37.70
2019-02-28T13:58:38.715Z,39.43
2019-02-28T14:03:46.047Z,36.77
2019-02-28T14:08:49.233Z,40.17
2019-02-28T14:13:53.611Z,38.57
2019-02-28T14:18:57.968Z,36.57
2019-02-28T14:24:02.358Z,35.70
2019-02-28T14:29:07.040Z,36.73
2019-02-28T14:34:12.783Z,36.70
2019-02-28T14:39:17.172Z,32.77
2019-02-28T14:44:21.621Z,36.03
2019-02-28T14:49:26.476Z,35.27
2019-02-28T14:54:30.877Z,40.47
2019-02-28T14:59:35.270Z,38.27
2019-02-28T15:04:42.356Z,38.53
2019-02-28T15:09:45.771Z,42.47
2019-02-28T15:14:50.175Z,37.83
2019-02-28T15:19:57.037Z,39.20
2019-02-28T15:25:00.603Z,41.27
2019-02-28T15:30:08.185Z,37.17
2019-02-28T15:35:17.805Z,38.50
2019-02-28T15:40:27.616Z,43.53
2019-02-28T15:45:32.052Z,37.93
2019-02-28T15:50:36.412Z,42.17
2019-02-28T15:55:40.781Z,39.03
2019-02-28T16:00:45.243Z,41.50
2019-02-28T16:05:49.638Z,44.83
2019-02-28T16:10:54.069Z,38.17
2019-02-28T16:15:58.416Z,41.50
2019-02-28T16:21:03.516Z,45.73
2019-02-28T16:26:09.973Z,42.40
2019-02-28T16:31:14.350Z,42.77
2019-02-28T16:36:18.772Z,45.03
2019-02-28T16:41:23.265Z,43.23
2019-02-28T16:46:30.163Z,37.87
2019-02-28T16:51:36.100Z,42.63
2019-02-28T16:56:40.532Z,47.23
2019-02-28T17:01:44.885Z,39.33
2019-02-28T17:06:49.254Z,44.90
2019-02-28T17:11:57.955Z,45.90
2019-02-28T17:17:08.698Z,43.83
2019-02-28T17:22:12.911Z,42.70
2019-02-28T17:27:24.852Z,50.97
2019-02-28T17:32:31.418Z,47.93
2019-02-28T17:37:35.736Z,47.90
2019-02-28T17:42:40.989Z,45.37
2019-02-28T17:48:26.161Z,45.37
2019-02-28T17:54:02.656Z,45.57
2019-02-28T17:59:39.024Z,47.37
2019-02-28T18:04:50.115Z,47.33
2019-02-28T18:10:00.700Z,45.90
2019-02-28T18:15:17.865Z,43.83
2019-02-28T18:20:46.795Z,43.93
2019-02-28T18:26:01.930Z,41.03
2019-02-28T18:31:13.684Z,40.90
2019-02-28T18:36:20.880Z,46.77
2019-02-28T18:41:25.223Z,39.13
2019-02-28T18:46:30.732Z,41.90
2019-02-28T18:51:35.280Z,43.57
2019-02-28T18:56:41.438Z,44.60
2019-02-28T19:01:45.902Z,43.20
2019-02-28T19:06:50.380Z,41.92
2019-02-28T19:11:54.843Z,41.87
2019-02-28T19:16:59.262Z,42.00
2019-02-28T19:22:03.729Z,42.40
2019-02-28T19:27:08.111Z,47.07
2019-02-28T19:32:12.564Z,44.17
2019-02-28T19:37:16.969Z,40.67
2019-02-28T19:42:21.428Z,42.73
2019-02-28T19:47:25.910Z,39.90
2019-02-28T19:52:30.270Z,44.13
2019-02-28T19:57:34.653Z,44.20
2019-02-28T20:02:39.078Z,41.00
2019-02-28T20:07:44.643Z,42.57
2019-02-28T20:12:49.025Z,46.40
2019-02-28T20:17:53.489Z,47.40
2019-02-28T20:22:57.857Z,45.37
2019-02-28T20:28:02.254Z,41.70
2019-02-28T20:33:06.973Z,43.67
2019-02-28T20:38:11.411Z,48.50
2019-02-28T20:43:15.783Z,43.63
2019-02-28T20:48:20.155Z,40.87
2019-02-28T20:53:24.511Z,44.10
2019-02-28T20:58:28.879Z,44.40
2019-02-28T21:03:33.281Z,44.67
2019-02-28T21:08:37.739Z,43.43
2019-02-28T21:13:42.113Z,47.00
2019-02-28T21:18:47.524Z,46.17
2019-02-28T21:23:52.027Z,45.20
2019-02-28T21:28:56.500Z,45.27
2019-02-28T21:34:02.051Z,44.80
2019-02-28T21:39:07.817Z,49.00
2019-02-28T21:44:13.843Z,50.17
2019-02-28T21:49:19.359Z,48.33
2019-02-28T21:54:23.832Z,46.63
2019-02-28T21:59:28.300Z,52.37
2019-02-28T22:04:32.914Z,48.23
2019-02-28T22:09:38.743Z,54.23
2019-02-28T22:14:43.128Z,51.30
2019-02-28T22:19:47.512Z,53.47
2019-02-28T22:24:51.974Z,55.97
2019-02-28T22:29:58.004Z,56.77
2019-02-28T22:35:04.031Z,54.60
2019-02-28T22:40:09.467Z,52.83
2019-02-28T22:45:13.869Z,57.97
2019-02-28T22:50:18.295Z,58.87
2019-02-28T22:55:23.032Z,55.53
2019-02-28T23:00:43.623Z,60.60
2019-02-28T23:05:48.402Z,58.23
2019-02-28T23:10:54.015Z,58.33
2019-02-28T23:15:58.444Z,60.23
2019-02-28T23:21:02.825Z,61.53
2019-02-28T23:26:12.109Z,61.07
2019-02-28T23:31:46.470Z,63.77
2019-02-28T23:36:50.865Z,63.10
2019-02-28T23:41:55.366Z,62.90
2019-02-28T23:46:59.747Z,60.47
2019-02-28T23:52:04.133Z,62.33
2019-02-28T23:57:08.603Z,62.43
